createdAt,value
2018-02-27T00:00:21.273Z,21.57
2018-02-27T00:01:21.434Z,21.62
2018-02-27T00:02:21.592Z,21.58
2018-02-27T00:03:21.751Z,21.60
2018-02-27T00:04:21.921Z,21.57
2018-02-27T00:05:22.072Z,21.60
2018-02-27T00:06:22.236Z,21.58
2018-02-27T00:07:22.392Z,21.61
2018-02-27T00:08:22.558Z,21.64
2018-02-27T00:09:22.717Z,21.57
2018-02-27T00:10:22.878Z,21.55
2018-02-27T00:11:23.036Z,21.61
2018-02-27T00:12:23.202Z,21.54
2018-02-27T00:13:23.359Z,21.52
2018-02-27T00:14:23.519Z,21.62
2018-02-27T00:15:23.677Z,21.60
2018-02-27T00:16:23.840Z,21.60
2018-02-27T00:17:23.993Z,21.57
2018-02-27T00:18:24.162Z,21.51
2018-02-27T00:19:24.320Z,21.55
2018-02-27T00:20:24.481Z,21.60
2018-02-27T00:21:24.640Z,21.51
2018-02-27T00:22:24.802Z,21.60
2018-02-27T00:23:24.961Z,21.57
2018-02-27T00:24:25.126Z,21.64
2018-02-27T00:25:25.280Z,21.57
2018-02-27T00:26:25.558Z,21.50
2018-02-27T00:27:25.603Z,21.52
2018-02-27T00:28:25.768Z,21.54
2018-02-27T00:29:25.928Z,21.57
2018-02-27T00:30:26.089Z,21.46
2018-02-27T00:31:26.247Z,21.55
2018-02-27T00:32:26.408Z,21.57
2018-02-27T00:33:26.556Z,21.58
2018-02-27T00:34:26.726Z,21.55
2018-02-27T00:35:26.881Z,21.61
2018-02-27T00:36:27.054Z,21.60
2018-02-27T00:37:27.212Z,21.60
2018-02-27T00:38:27.373Z,21.60
2018-02-27T00:39:27.532Z,21.57
2018-02-27T00:40:27.698Z,21.54
2018-02-27T00:41:27.856Z,21.57
2018-02-27T00:42:28.014Z,21.57
2018-02-27T00:43:28.172Z,21.57
2018-02-27T00:44:28.338Z,21.55
2018-02-27T00:45:28.492Z,21.66
2018-02-27T00:46:28.654Z,21.55
2018-02-27T00:47:28.812Z,21.58
2018-02-27T00:48:28.975Z,21.54
2018-02-27T00:49:29.133Z,21.58
2018-02-27T00:50:29.296Z,21.57
2018-02-27T00:51:29.455Z,21.58
2018-02-27T00:52:29.616Z,21.51
2018-02-27T00:53:29.774Z,21.52
2018-02-27T00:54:29.941Z,21.55
2018-02-27T00:55:30.096Z,21.52
2018-02-27T00:56:30.259Z,21.57
2018-02-27T00:57:30.418Z,21.60
2018-02-27T00:58:30.581Z,21.55
2018-02-27T00:59:30.740Z,21.51
2018-02-27T01:00:30.902Z,21.50
2018-02-27T01:01:31.060Z,21.60
2018-02-27T01:02:31.223Z,21.60
2018-02-27T01:03:31.380Z,21.60
2018-02-27T01:04:31.546Z,21.60
2018-02-27T01:05:31.699Z,21.54
2018-02-27T01:06:31.863Z,21.54
2018-02-27T01:07:32.023Z,21.61
2018-02-27T01:08:32.400Z,21.57
2018-02-27T01:09:32.341Z,21.58
2018-02-27T01:10:32.528Z,21.58
2018-02-27T01:11:32.652Z,21.54
2018-02-27T01:12:32.803Z,21.55
2018-02-27T01:13:32.961Z,21.58
2018-02-27T01:14:33.116Z,21.52
2018-02-27T01:15:33.273Z,21.58
2018-02-27T01:16:33.431Z,21.50
2018-02-27T01:17:33.589Z,21.48
2018-02-27T01:18:33.748Z,21.57
2018-02-27T01:19:33.906Z,21.60
2018-02-27T01:20:34.063Z,21.54
2018-02-27T01:21:34.221Z,21.52
2018-02-27T01:22:34.380Z,21.46
2018-02-27T01:23:34.540Z,21.58
2018-02-27T01:24:34.687Z,21.55
2018-02-27T01:25:34.859Z,21.52
2018-02-27T01:26:35.016Z,21.57
2018-02-27T01:27:35.180Z,21.52
2018-02-27T01:28:35.338Z,21.57
2018-02-27T01:29:35.501Z,21.54
2018-02-27T01:30:35.659Z,21.61
2018-02-27T01:31:35.819Z,21.57
2018-02-27T01:32:35.982Z,21.54
2018-02-27T01:33:36.172Z,21.51
2018-02-27T01:34:37.043Z,21.60
2018-02-27T01:35:36.571Z,21.57
2018-02-27T01:36:36.673Z,21.58
2018-02-27T01:37:36.829Z,21.52
2018-02-27T01:38:36.993Z,21.58
2018-02-27T01:39:37.153Z,21.57
2018-02-27T01:40:37.318Z,21.50
2018-02-27T01:41:37.485Z,21.55
2018-02-27T01:42:37.639Z,21.58
2018-02-27T01:43:37.797Z,21.54
2018-02-27T01:44:37.959Z,21.54
2018-02-27T01:45:38.116Z,21.50
2018-02-27T01:46:38.262Z,21.57
2018-02-27T01:47:38.425Z,21.52
2018-02-27T01:48:38.573Z,21.58
2018-02-27T01:49:38.728Z,21.52
2018-02-27T01:50:38.889Z,21.54
2018-02-27T01:51:39.048Z,21.57
2018-02-27T01:52:39.203Z,21.57
2018-02-27T01:53:39.360Z,21.52
2018-02-27T01:54:39.519Z,21.58
2018-02-27T01:55:39.677Z,21.55
2018-02-27T01:56:39.835Z,21.55
2018-02-27T01:57:39.992Z,21.51
2018-02-27T01:58:40.155Z,21.45
2018-02-27T01:59:40.314Z,21.51
2018-02-27T02:00:40.472Z,21.60
2018-02-27T02:01:40.635Z,21.57
2018-02-27T02:02:40.795Z,21.57
2018-02-27T02:03:40.955Z,21.55
2018-02-27T02:04:41.113Z,21.57
2018-02-27T02:05:41.277Z,21.57
2018-02-27T02:06:41.435Z,21.55
2018-02-27T02:07:41.597Z,21.57
2018-02-27T02:08:41.755Z,21.58
2018-02-27T02:09:41.919Z,21.58
2018-02-27T02:10:42.077Z,21.52
2018-02-27T02:11:42.239Z,21.50
2018-02-27T02:12:42.398Z,21.54
2018-02-27T02:13:42.561Z,21.48
2018-02-27T02:14:42.718Z,21.51
2018-02-27T02:15:42.882Z,21.54
2018-02-27T02:16:43.041Z,21.52
2018-02-27T02:17:43.202Z,21.54
2018-02-27T02:18:43.360Z,21.57
2018-02-27T02:19:43.517Z,21.51
2018-02-27T02:20:43.678Z,21.55
2018-02-27T02:21:43.842Z,21.57
2018-02-27T02:22:44.000Z,21.57
2018-02-27T02:23:44.172Z,21.50
2018-02-27T02:24:44.324Z,21.54
2018-02-27T02:25:44.486Z,21.57
2018-02-27T02:26:44.647Z,21.55
2018-02-27T02:27:44.806Z,21.54
2018-02-27T02:28:44.965Z,21.60
2018-02-27T02:29:45.128Z,21.51
2018-02-27T02:30:45.286Z,21.48
2018-02-27T02:31:45.448Z,21.58
2018-02-27T02:32:45.604Z,21.55
2018-02-27T02:33:45.768Z,21.46
2018-02-27T02:34:45.926Z,21.50
2018-02-27T02:35:46.093Z,21.55
2018-02-27T02:36:46.249Z,21.52
2018-02-27T02:37:46.413Z,21.55
2018-02-27T02:38:46.561Z,21.60
2018-02-27T02:39:46.733Z,21.52
2018-02-27T02:40:46.890Z,21.51
2018-02-27T02:41:47.053Z,21.58
2018-02-27T02:42:47.211Z,21.42
2018-02-27T02:43:47.374Z,21.58
2018-02-27T02:44:47.530Z,21.57
2018-02-27T02:45:47.695Z,21.50
2018-02-27T02:46:47.856Z,21.60
2018-02-27T02:47:48.016Z,21.52
2018-02-27T02:48:48.174Z,21.52
2018-02-27T02:49:48.336Z,21.55
2018-02-27T02:50:48.494Z,21.57
2018-02-27T02:51:48.657Z,21.42
2018-02-27T02:52:48.819Z,21.57
2018-02-27T02:53:48.997Z,21.55
2018-02-27T02:54:49.158Z,21.50
2018-02-27T02:55:49.314Z,21.54
2018-02-27T02:56:49.474Z,21.48
2018-02-27T02:57:49.631Z,21.60
2018-02-27T02:58:49.791Z,21.48
2018-02-27T02:59:49.948Z,21.51
2018-02-27T03:00:50.106Z,21.67
2018-02-27T03:01:50.264Z,21.54
2018-02-27T03:02:50.422Z,21.54
2018-02-27T03:03:50.580Z,21.57
2018-02-27T03:04:50.740Z,21.60
2018-02-27T03:05:50.903Z,21.52
2018-02-27T03:06:51.065Z,21.52
2018-02-27T03:07:51.222Z,21.48
2018-02-27T03:08:51.381Z,21.50
2018-02-27T03:09:51.545Z,21.62
2018-02-27T03:10:51.704Z,21.48
2018-02-27T03:11:51.865Z,21.51
2018-02-27T03:12:52.023Z,21.51
2018-02-27T03:13:52.186Z,21.52
2018-02-27T03:14:52.345Z,21.54
2018-02-27T03:15:52.507Z,21.57
2018-02-27T03:16:52.669Z,21.50
2018-02-27T03:17:52.828Z,21.58
2018-02-27T03:18:52.985Z,21.52
2018-02-27T03:19:53.148Z,21.48
2018-02-27T03:20:53.308Z,21.60
2018-02-27T03:21:53.470Z,21.57
2018-02-27T03:22:53.628Z,21.57
2018-02-27T03:23:53.791Z,21.52
2018-02-27T03:24:53.949Z,21.60
2018-02-27T03:25:54.112Z,21.55
2018-02-27T03:26:54.272Z,21.52
2018-02-27T03:27:54.432Z,21.54
2018-02-27T03:28:54.593Z,21.58
2018-02-27T03:29:54.753Z,21.57
2018-02-27T03:30:54.905Z,21.55
2018-02-27T03:31:55.074Z,21.57
2018-02-27T03:32:55.232Z,21.50
2018-02-27T03:33:55.396Z,21.54
2018-02-27T03:34:55.546Z,21.54
2018-02-27T03:35:55.717Z,21.55
2018-02-27T03:36:55.877Z,21.54
2018-02-27T03:37:56.038Z,21.48
2018-02-27T03:38:56.197Z,21.48
2018-02-27T03:39:56.408Z,21.57
2018-02-27T03:40:56.516Z,21.52
2018-02-27T03:41:56.679Z,21.52
2018-02-27T03:42:56.841Z,21.57
2018-02-27T03:43:57.000Z,21.51
2018-02-27T03:44:57.160Z,21.62
2018-02-27T03:45:57.320Z,21.46
2018-02-27T03:46:57.481Z,21.54
2018-02-27T03:47:57.642Z,21.58
2018-02-27T03:48:57.802Z,21.57
2018-02-27T03:49:57.964Z,21.60
2018-02-27T03:50:58.122Z,21.52
2018-02-27T03:51:58.283Z,21.48
2018-02-27T03:52:58.443Z,21.55
2018-02-27T03:53:58.605Z,21.54
2018-02-27T03:54:58.762Z,21.55
2018-02-27T03:55:58.926Z,21.51
2018-02-27T03:56:59.075Z,21.55
2018-02-27T03:57:59.246Z,21.54
2018-02-27T03:58:59.404Z,21.55
2018-02-27T03:59:59.566Z,21.48
2018-02-27T04:00:59.725Z,21.48
2018-02-27T04:01:59.903Z,21.52
2018-02-27T04:03:00.045Z,21.55
2018-02-27T04:04:00.205Z,21.48
2018-02-27T04:05:00.371Z,21.48
2018-02-27T04:06:00.530Z,21.48
2018-02-27T04:07:00.687Z,21.46
2018-02-27T04:08:00.850Z,21.51
2018-02-27T04:09:01.001Z,21.57
2018-02-27T04:10:01.171Z,21.50
2018-02-27T04:11:01.324Z,21.55
2018-02-27T04:12:01.493Z,21.45
2018-02-27T04:13:01.758Z,21.50
2018-02-27T04:14:01.873Z,21.48
2018-02-27T04:15:02.031Z,21.58
2018-02-27T04:16:02.191Z,21.60
2018-02-27T04:17:02.349Z,21.57
2018-02-27T04:18:02.509Z,21.51
2018-02-27T04:19:02.666Z,21.52
2018-02-27T04:20:02.822Z,21.61
2018-02-27T04:21:02.985Z,21.50
2018-02-27T04:22:03.144Z,21.51
2018-02-27T04:23:03.357Z,21.46
2018-02-27T04:24:03.461Z,21.54
2018-02-27T04:25:03.631Z,21.55
2018-02-27T04:26:03.784Z,21.52
2018-02-27T04:27:03.950Z,21.45
2018-02-27T04:28:04.098Z,21.54
2018-02-27T04:29:04.270Z,21.52
2018-02-27T04:30:04.427Z,21.48
2018-02-27T04:31:04.591Z,21.45
2018-02-27T04:32:04.749Z,21.46
2018-02-27T04:33:04.912Z,21.52
2018-02-27T04:34:05.070Z,21.46
2018-02-27T04:35:05.233Z,21.54
2018-02-27T04:36:05.392Z,21.57
2018-02-27T04:37:05.555Z,21.52
2018-02-27T04:38:05.712Z,21.46
2018-02-27T04:39:05.879Z,21.51
2018-02-27T04:40:06.039Z,21.48
2018-02-27T04:41:06.194Z,21.50
2018-02-27T04:42:06.356Z,21.57
2018-02-27T04:43:06.552Z,21.52
2018-02-27T04:44:06.786Z,21.48
2018-02-27T04:45:07.014Z,21.50
2018-02-27T04:46:07.117Z,21.62
2018-02-27T04:47:07.278Z,21.60
2018-02-27T04:48:07.436Z,21.54
2018-02-27T04:49:07.586Z,21.52
2018-02-27T04:50:07.743Z,21.51
2018-02-27T04:51:07.903Z,21.57
2018-02-27T04:52:08.062Z,21.60
2018-02-27T04:53:08.222Z,21.51
2018-02-27T04:54:08.385Z,21.54
2018-02-27T04:55:08.543Z,21.57
2018-02-27T04:56:08.728Z,21.52
2018-02-27T04:57:08.892Z,21.48
2018-02-27T04:58:09.048Z,21.54
2018-02-27T04:59:09.206Z,21.48
2018-02-27T05:00:09.363Z,21.54
2018-02-27T05:01:09.524Z,21.52
2018-02-27T05:02:09.680Z,21.54
2018-02-27T05:03:09.839Z,21.50
2018-02-27T05:04:09.995Z,21.58
2018-02-27T05:05:10.152Z,21.55
2018-02-27T05:06:10.411Z,21.58
2018-02-27T05:07:10.538Z,21.54
2018-02-27T05:08:10.689Z,21.54
2018-02-27T05:09:10.847Z,21.52
2018-02-27T05:10:11.005Z,21.58
2018-02-27T05:11:11.165Z,21.55
2018-02-27T05:12:11.323Z,21.55
2018-02-27T05:13:11.482Z,21.57
2018-02-27T05:14:11.644Z,21.54
2018-02-27T05:15:11.803Z,21.54
2018-02-27T05:16:11.965Z,21.48
2018-02-27T05:17:12.124Z,21.55
2018-02-27T05:18:12.286Z,21.54
2018-02-27T05:19:12.443Z,21.55
2018-02-27T05:20:12.608Z,21.52
2018-02-27T05:21:12.768Z,21.46
2018-02-27T05:22:12.927Z,21.45
2018-02-27T05:23:13.087Z,21.52
2018-02-27T05:24:13.248Z,21.52
2018-02-27T05:25:13.407Z,21.45
2018-02-27T05:26:13.569Z,21.46
2018-02-27T05:27:13.728Z,21.52
2018-02-27T05:28:13.890Z,21.55
2018-02-27T05:29:14.051Z,21.50
2018-02-27T05:30:14.211Z,21.55
2018-02-27T05:31:14.369Z,21.48
2018-02-27T05:32:14.532Z,21.54
2018-02-27T05:33:14.695Z,21.51
2018-02-27T05:34:14.853Z,21.52
2018-02-27T05:35:15.014Z,21.48
2018-02-27T05:36:15.179Z,21.57
2018-02-27T05:37:15.332Z,21.52
2018-02-27T05:38:15.493Z,21.48
2018-02-27T05:39:15.652Z,21.46
2018-02-27T05:40:15.816Z,21.55
2018-02-27T05:41:15.974Z,21.48
2018-02-27T05:42:16.138Z,21.46
2018-02-27T05:43:16.295Z,21.43
2018-02-27T05:44:16.463Z,21.52
2018-02-27T05:45:16.619Z,21.52
2018-02-27T05:46:16.779Z,21.52
2018-02-27T05:47:16.939Z,21.50
2018-02-27T05:48:17.099Z,21.55
2018-02-27T05:49:17.277Z,21.55
2018-02-27T05:50:17.425Z,21.48
2018-02-27T05:51:17.578Z,21.52
2018-02-27T05:52:17.740Z,21.60
2018-02-27T05:53:17.897Z,21.55
2018-02-27T05:54:18.061Z,21.57
2018-02-27T05:55:18.221Z,21.51
2018-02-27T05:56:18.383Z,21.57
2018-02-27T05:57:18.541Z,21.54
2018-02-27T05:58:18.703Z,21.52
2018-02-27T05:59:18.861Z,21.57
2018-02-27T06:00:19.027Z,21.46
2018-02-27T06:01:19.182Z,21.48
2018-02-27T06:02:19.344Z,21.48
2018-02-27T06:03:19.504Z,21.57
2018-02-27T06:04:19.666Z,21.57
2018-02-27T06:05:19.824Z,21.45
2018-02-27T06:06:19.988Z,21.54
2018-02-27T06:07:20.147Z,21.51
2018-02-27T06:08:20.321Z,21.58
2018-02-27T06:09:20.462Z,21.58
2018-02-27T06:10:20.616Z,21.58
2018-02-27T06:11:20.772Z,21.57
2018-02-27T06:12:20.934Z,21.60
2018-02-27T06:13:21.094Z,21.55
2018-02-27T06:14:21.245Z,21.60
2018-02-27T06:15:21.403Z,21.58
2018-02-27T06:16:21.559Z,21.51
2018-02-27T06:17:21.717Z,21.58
2018-02-27T06:18:21.874Z,21.52
2018-02-27T06:19:22.031Z,21.52
2018-02-27T06:20:22.190Z,21.54
2018-02-27T06:21:22.350Z,21.55
2018-02-27T06:22:22.504Z,21.62
2018-02-27T06:23:22.669Z,21.57
2018-02-27T06:24:22.822Z,21.55
2018-02-27T06:25:22.984Z,21.50
2018-02-27T06:26:23.140Z,21.51
2018-02-27T06:27:23.306Z,21.58
2018-02-27T06:28:23.463Z,21.60
2018-02-27T06:29:23.626Z,21.58
2018-02-27T06:30:23.784Z,21.57
2018-02-27T06:31:23.991Z,21.58
2018-02-27T06:32:24.097Z,21.60
2018-02-27T06:33:24.302Z,21.54
2018-02-27T06:34:24.455Z,21.57
2018-02-27T06:35:24.613Z,21.54
2018-02-27T06:36:24.770Z,21.64
2018-02-27T06:37:24.926Z,21.60
2018-02-27T06:38:25.087Z,21.52
2018-02-27T06:39:25.262Z,21.58
2018-02-27T06:40:25.403Z,21.57
2018-02-27T06:41:25.561Z,21.52
2018-02-27T06:42:25.719Z,21.66
2018-02-27T06:43:25.893Z,21.60
2018-02-27T06:44:26.025Z,21.57
2018-02-27T06:45:26.193Z,21.60
2018-02-27T06:46:26.390Z,21.58
2018-02-27T06:47:26.514Z,21.64
2018-02-27T06:48:26.700Z,21.58
2018-02-27T06:49:26.834Z,21.55
2018-02-27T06:50:26.993Z,21.58
2018-02-27T06:51:27.156Z,21.60
2018-02-27T06:52:27.315Z,21.55
2018-02-27T06:53:27.477Z,21.61
2018-02-27T06:54:27.635Z,21.57
2018-02-27T06:55:27.797Z,21.57
2018-02-27T06:56:27.955Z,21.58
2018-02-27T06:57:28.118Z,21.58
2018-02-27T06:58:28.276Z,21.60
2018-02-27T06:59:28.436Z,21.57
2018-02-27T07:00:28.599Z,21.52
2018-02-27T07:01:28.766Z,21.66
2018-02-27T07:02:28.922Z,21.57
2018-02-27T07:03:29.078Z,21.61
2018-02-27T07:04:29.239Z,21.51
2018-02-27T07:05:29.401Z,21.55
2018-02-27T07:06:29.561Z,21.58
2018-02-27T07:07:29.724Z,21.60
2018-02-27T07:08:29.883Z,21.58
2018-02-27T07:09:30.044Z,21.61
2018-02-27T07:10:30.632Z,21.58
2018-02-27T07:11:30.371Z,21.54
2018-02-27T07:12:30.524Z,21.64
2018-02-27T07:13:31.002Z,21.58
2018-02-27T07:14:30.844Z,21.62
2018-02-27T07:15:31.011Z,21.54
2018-02-27T07:16:31.162Z,21.52
2018-02-27T07:17:31.308Z,21.60
2018-02-27T07:18:31.499Z,21.60
2018-02-27T07:19:31.628Z,21.60
2018-02-27T07:20:31.779Z,21.67
2018-02-27T07:21:31.935Z,21.58
2018-02-27T07:22:32.092Z,21.57
2018-02-27T07:23:32.250Z,21.57
2018-02-27T07:24:32.408Z,21.57
2018-02-27T07:25:32.566Z,21.61
2018-02-27T07:26:32.733Z,21.58
2018-02-27T07:27:32.868Z,21.61
2018-02-27T07:28:33.030Z,21.64
2018-02-27T07:29:33.185Z,21.62
2018-02-27T07:30:33.345Z,21.57
2018-02-27T07:31:33.505Z,21.60
2018-02-27T07:32:33.657Z,21.57
2018-02-27T07:33:33.814Z,21.60
2018-02-27T07:34:33.972Z,21.57
2018-02-27T07:35:34.130Z,21.57
2018-02-27T07:36:34.288Z,21.57
2018-02-27T07:37:34.444Z,21.66
2018-02-27T07:38:34.603Z,21.62
2018-02-27T07:39:34.762Z,21.58
2018-02-27T07:40:34.920Z,21.62
2018-02-27T07:41:35.079Z,21.61
2018-02-27T07:42:35.238Z,21.57
2018-02-27T07:43:35.398Z,21.57
2018-02-27T07:44:35.550Z,21.55
2018-02-27T07:45:35.717Z,21.62
2018-02-27T07:46:35.879Z,21.60
2018-02-27T07:47:36.039Z,21.55
2018-02-27T07:48:36.198Z,21.62
2018-02-27T07:49:36.361Z,21.60
2018-02-27T07:50:36.520Z,21.57
2018-02-27T07:51:36.683Z,21.62
2018-02-27T07:52:36.887Z,21.58
2018-02-27T07:53:37.007Z,21.64
2018-02-27T07:54:37.175Z,21.58
2018-02-27T07:55:37.332Z,21.60
2018-02-27T07:56:37.494Z,21.60
2018-02-27T07:57:37.644Z,21.66
2018-02-27T07:58:37.797Z,21.61
2018-02-27T07:59:37.968Z,21.58
2018-02-27T08:00:38.118Z,21.62
2018-02-27T08:01:38.270Z,21.61
2018-02-27T08:02:38.428Z,21.61
2018-02-27T08:03:38.582Z,21.61
2018-02-27T08:04:38.741Z,21.60
2018-02-27T08:05:38.898Z,21.58
2018-02-27T08:06:39.060Z,21.61
2018-02-27T08:07:39.216Z,21.57
2018-02-27T08:08:39.373Z,21.61
2018-02-27T08:09:39.532Z,21.61
2018-02-27T08:10:39.711Z,21.66
2018-02-27T08:11:39.861Z,21.60
2018-02-27T08:12:40.021Z,21.61
2018-02-27T08:13:40.179Z,21.61
2018-02-27T08:14:40.338Z,21.57
2018-02-27T08:15:40.495Z,21.61
2018-02-27T08:16:40.653Z,21.58
2018-02-27T08:17:40.811Z,21.55
2018-02-27T08:18:40.969Z,21.58
2018-02-27T08:19:41.130Z,21.57
2018-02-27T08:20:41.288Z,21.60
2018-02-27T08:21:41.446Z,21.55
2018-02-27T08:22:41.604Z,21.57
2018-02-27T08:23:41.762Z,21.58
2018-02-27T08:24:41.923Z,21.58
2018-02-27T08:25:42.083Z,21.60
2018-02-27T08:26:42.244Z,21.58
2018-02-27T08:27:42.405Z,21.55
2018-02-27T08:28:42.566Z,21.58
2018-02-27T08:29:42.725Z,21.58
2018-02-27T08:30:42.902Z,21.52
2018-02-27T08:31:43.049Z,21.57
2018-02-27T08:32:43.207Z,21.64
2018-02-27T08:33:43.357Z,21.52
2018-02-27T08:34:43.528Z,21.58
2018-02-27T08:35:43.686Z,21.62
2018-02-27T08:36:43.849Z,21.58
2018-02-27T08:37:44.001Z,21.54
2018-02-27T08:38:44.171Z,21.60
2018-02-27T08:39:44.329Z,21.61
2018-02-27T08:40:44.494Z,21.57
2018-02-27T08:41:44.647Z,21.55
2018-02-27T08:42:44.818Z,21.52
2018-02-27T08:43:44.967Z,21.60
2018-02-27T08:44:45.133Z,21.67
2018-02-27T09:33:40.416Z,18.33
2018-02-27T09:34:40.548Z,18.63
2018-02-27T09:40:07.609Z,12.07
2018-02-27T09:41:07.552Z,7.02
2018-02-27T09:42:07.685Z,4.78
2018-02-27T09:43:07.831Z,2.15
2018-02-27T09:44:07.985Z,0.77
2018-02-27T09:45:08.135Z,-0.72
2018-02-27T09:46:08.285Z,-2.35
2018-02-27T09:47:08.437Z,-3.25
2018-02-27T09:48:08.590Z,-4.03
2018-02-27T09:49:08.746Z,-4.82
2018-02-27T09:50:08.888Z,-5.19
2018-02-27T09:51:09.037Z,-5.24
2018-02-27T09:52:09.232Z,-5.19
2018-02-27T09:53:09.336Z,-5.39
2018-02-27T09:54:09.486Z,-5.36
2018-02-27T09:55:09.646Z,-5.28
2018-02-27T09:56:09.790Z,-5.51
2018-02-27T09:57:09.933Z,-5.54
2018-02-27T09:58:10.082Z,-5.45
2018-02-27T09:59:10.233Z,-5.42
2018-02-27T10:00:10.377Z,-5.39
2018-02-27T10:01:10.520Z,-5.53
2018-02-27T10:02:10.676Z,-5.57
2018-02-27T10:03:10.814Z,-5.56
2018-02-27T10:04:10.971Z,-5.45
2018-02-27T10:05:11.115Z,-5.56
2018-02-27T10:06:11.263Z,-5.42
2018-02-27T10:07:11.416Z,-5.38
2018-02-27T10:08:11.551Z,-5.42
2018-02-27T10:09:11.705Z,-5.46
2018-02-27T10:10:11.854Z,-5.31
2018-02-27T10:11:11.999Z,-5.27
2018-02-27T10:12:12.151Z,-5.27
2018-02-27T10:13:12.294Z,-5.35
2018-02-27T10:14:12.439Z,-5.27
2018-02-27T10:15:12.588Z,-5.33
2018-02-27T10:16:12.728Z,-5.29
2018-02-27T10:17:12.889Z,-5.08
2018-02-27T10:18:13.024Z,-5.05
2018-02-27T10:19:13.169Z,-4.84
2018-02-27T10:20:13.311Z,-5.03
2018-02-27T10:21:13.461Z,-5.13
2018-02-27T10:22:13.644Z,-5.18
2018-02-27T10:23:13.753Z,-5.13
2018-02-27T10:24:13.899Z,-5.18
2018-02-27T10:25:14.046Z,-5.14
2018-02-27T10:26:14.200Z,-5.18
2018-02-27T10:27:14.361Z,-5.10
2018-02-27T10:28:14.494Z,-4.92
2018-02-27T10:29:14.670Z,-4.99
2018-02-27T10:30:14.783Z,-4.89
2018-02-27T10:31:14.928Z,-4.87
2018-02-27T10:32:15.072Z,-4.96
2018-02-27T10:33:15.215Z,-4.91
2018-02-27T10:34:15.360Z,-4.71
2018-02-27T10:35:15.506Z,-4.79
2018-02-27T10:36:15.651Z,-4.73
2018-02-27T10:37:15.794Z,-4.75
2018-02-27T10:38:15.939Z,-4.63
2018-02-27T10:39:16.083Z,-4.63
2018-02-27T10:40:16.229Z,-4.50
2018-02-27T10:41:16.377Z,-4.49
2018-02-27T10:42:16.522Z,-4.53
2018-02-27T10:43:16.668Z,-4.66
2018-02-27T10:44:16.812Z,-4.77
2018-02-27T10:45:16.955Z,-4.82
2018-02-27T10:46:17.100Z,-4.71
2018-02-27T10:47:17.250Z,-4.67
2018-02-27T10:48:17.392Z,-4.63
2018-02-27T10:49:17.540Z,-4.61
2018-02-27T10:50:17.701Z,-4.43
2018-02-27T10:51:17.828Z,-4.32
2018-02-27T10:52:17.973Z,-4.30
2018-02-27T10:53:18.117Z,-4.46
2018-02-27T10:54:18.262Z,-4.55
2018-02-27T10:55:18.409Z,-4.63
2018-02-27T10:56:18.558Z,-4.67
2018-02-27T10:57:18.699Z,-4.70
2018-02-27T10:58:18.846Z,-4.69
2018-02-27T10:59:18.994Z,-4.63
2018-02-27T11:00:19.134Z,-4.61
2018-02-27T11:01:19.282Z,-4.50
2018-02-27T11:02:19.432Z,-4.39
2018-02-27T11:03:19.573Z,-4.35
2018-02-27T11:04:19.719Z,-4.32
2018-02-27T11:05:19.863Z,-4.27
2018-02-27T11:06:20.008Z,-4.24
2018-02-27T11:07:20.170Z,-4.31
2018-02-27T11:08:20.539Z,-4.49
2018-02-27T11:09:20.456Z,-4.32
2018-02-27T11:10:20.591Z,-4.30
2018-02-27T11:12:20.884Z,-4.52
2018-02-27T11:13:21.032Z,-4.41
2018-02-27T11:15:21.314Z,-4.46
2018-02-27T11:16:21.463Z,-4.31
2018-02-27T11:17:21.607Z,-4.13
2018-02-27T11:18:21.750Z,-4.06
2018-02-27T11:19:21.896Z,-4.12
2018-02-27T11:20:22.041Z,-4.32
2018-02-27T11:21:22.192Z,-4.38
2018-02-27T11:22:22.332Z,-4.28
2018-02-27T11:23:22.478Z,-4.27
2018-02-27T11:24:22.629Z,-4.16
2018-02-27T11:25:22.767Z,-4.12
2018-02-27T11:27:23.060Z,-4.04
2018-02-27T11:28:23.204Z,-3.99
2018-02-27T11:29:23.358Z,-3.82
2018-02-27T11:30:23.497Z,-3.99
2018-02-27T11:31:23.646Z,-3.66
2018-02-27T11:32:23.787Z,-3.66
2018-02-27T11:33:23.932Z,-3.61
2018-02-27T11:34:24.078Z,-3.69
2018-02-27T11:35:24.231Z,-3.66
2018-02-27T11:36:24.376Z,-3.63
2018-02-27T11:37:24.520Z,-3.52
2018-02-27T11:38:24.668Z,-3.61
2018-02-27T11:39:24.815Z,-3.63
2018-02-27T11:40:24.961Z,-3.58
2018-02-27T11:42:25.242Z,-3.70
2018-02-27T11:43:25.398Z,-3.58
2018-02-27T11:44:25.553Z,-3.55
2018-02-27T11:45:25.680Z,-3.49
2018-02-27T11:46:25.834Z,-3.41
2018-02-27T11:47:25.977Z,-3.48
2018-02-27T11:48:26.125Z,-3.64
2018-02-27T11:49:26.268Z,-3.59
2018-02-27T11:50:26.412Z,-3.54
2018-02-27T11:51:26.566Z,-3.61
2018-02-27T11:52:26.704Z,-3.56
2018-02-27T11:53:26.847Z,-3.49
2018-02-27T11:54:26.993Z,-3.33
2018-02-27T11:55:27.142Z,-3.40
2018-02-27T11:56:27.299Z,-3.27
2018-02-27T11:57:27.433Z,-3.30
2018-02-27T11:58:27.578Z,-3.20
2018-02-27T11:59:27.725Z,-3.16
2018-02-27T12:00:27.881Z,-3.15
2018-02-27T12:01:28.020Z,-3.17
2018-02-27T12:02:28.168Z,-3.38
2018-02-27T12:03:28.317Z,-3.22
2018-02-27T12:04:28.457Z,-3.09
2018-02-27T12:05:28.605Z,-2.95
2018-02-27T12:06:28.752Z,-2.99
2018-02-27T12:07:28.895Z,-3.09
2018-02-27T12:08:29.043Z,-3.02
2018-02-27T12:09:29.188Z,-3.16
2018-02-27T12:10:29.333Z,-3.27
2018-02-27T12:11:29.488Z,-3.23
2018-02-27T12:12:29.626Z,-3.20
2018-02-27T12:13:29.772Z,-3.25
2018-02-27T12:14:29.923Z,-3.44
2018-02-27T12:15:30.064Z,-3.49
2018-02-27T12:16:30.210Z,-3.48
2018-02-27T12:17:30.361Z,-3.40
2018-02-27T12:18:30.505Z,-3.34
2018-02-27T12:19:30.648Z,-3.27
2018-02-27T12:20:30.798Z,-3.23
2018-02-27T12:21:30.946Z,-3.16
2018-02-27T12:22:31.104Z,-3.17
2018-02-27T12:23:31.251Z,-3.16
2018-02-27T12:24:31.395Z,-3.20
2018-02-27T12:25:31.540Z,-3.15
2018-02-27T12:26:31.690Z,-3.23
2018-02-27T12:27:31.833Z,-3.30
2018-02-27T12:28:31.987Z,-3.31
2018-02-27T12:29:32.130Z,-3.23
2018-02-27T12:30:32.276Z,-3.20
2018-02-27T12:31:32.424Z,-3.17
2018-02-27T12:32:32.576Z,-3.09
2018-02-27T12:33:32.716Z,-2.99
2018-02-27T12:34:32.863Z,-2.91
2018-02-27T12:35:33.019Z,-2.88
2018-02-27T12:36:33.158Z,-2.74
2018-02-27T12:37:33.302Z,-2.74
2018-02-27T12:38:33.452Z,-2.55
2018-02-27T12:39:33.850Z,-2.66
2018-02-27T12:40:33.743Z,-2.76
2018-02-27T12:41:33.894Z,-2.88
2018-02-27T12:42:34.049Z,-3.01
2018-02-27T12:43:34.178Z,-3.07
2018-02-27T12:44:34.328Z,-2.92
2018-02-27T12:45:34.476Z,-2.84
2018-02-27T12:46:34.615Z,-2.71
2018-02-27T12:47:34.764Z,-2.63
2018-02-27T12:48:34.917Z,-2.45
2018-02-27T12:49:35.060Z,-2.74
2018-02-27T12:50:35.202Z,-2.71
2018-02-27T12:51:35.601Z,-2.78
2018-02-27T12:52:35.505Z,-2.94
2018-02-27T12:53:35.648Z,-2.98
2018-02-27T12:54:35.804Z,-2.94
2018-02-27T12:55:35.947Z,-2.83
2018-02-27T12:56:36.097Z,-2.84
2018-02-27T12:57:36.243Z,-2.78
2018-02-27T12:58:36.390Z,-2.70
2018-02-27T12:59:36.535Z,-2.63
2018-02-27T13:00:36.680Z,-2.76
2018-02-27T13:01:36.830Z,-2.76
2018-02-27T13:02:36.983Z,-2.74
2018-02-27T13:03:37.133Z,-2.89
2018-02-27T13:04:37.272Z,-2.84
2018-02-27T13:05:37.414Z,-2.94
2018-02-27T13:06:37.561Z,-2.86
2018-02-27T13:07:37.725Z,-2.86
2018-02-27T13:08:37.854Z,-2.83
2018-02-27T13:09:38.001Z,-2.74
2018-02-27T13:10:38.146Z,-2.86
2018-02-27T13:11:38.292Z,-2.97
2018-02-27T13:12:38.439Z,-3.16
2018-02-27T13:13:38.586Z,-3.04
2018-02-27T13:14:38.731Z,-3.12
2018-02-27T13:15:38.925Z,-3.19
2018-02-27T13:16:39.024Z,-3.28
2018-02-27T13:17:39.169Z,-3.19
2018-02-27T13:18:39.318Z,-3.09
2018-02-27T13:19:39.473Z,-3.16
2018-02-27T13:20:39.608Z,-3.17
2018-02-27T13:21:39.752Z,-3.12
2018-02-27T13:22:39.906Z,-3.20
2018-02-27T13:23:40.052Z,-3.10
2018-02-27T13:24:40.191Z,-3.12
2018-02-27T13:25:40.341Z,-3.07
2018-02-27T13:26:40.488Z,-3.07
2018-02-27T13:27:40.630Z,-3.17
2018-02-27T13:28:40.778Z,-3.25
2018-02-27T13:29:40.927Z,-3.20
2018-02-27T13:30:41.081Z,-3.06
2018-02-27T13:31:41.220Z,-3.15
2018-02-27T13:32:41.388Z,-3.09
2018-02-27T13:33:41.517Z,-3.17
2018-02-27T13:34:41.659Z,-2.97
2018-02-27T13:35:41.812Z,-3.04
2018-02-27T13:36:41.954Z,-3.15
2018-02-27T13:37:42.105Z,-3.09
2018-02-27T13:38:42.243Z,-3.06
2018-02-27T13:39:42.404Z,-3.04
2018-02-27T13:40:42.533Z,-3.07
2018-02-27T13:41:42.682Z,-2.97
2018-02-27T13:42:42.829Z,-2.92
2018-02-27T13:43:42.976Z,-2.94
2018-02-27T13:44:43.128Z,-2.18
2018-02-27T13:45:43.265Z,-2.23
2018-02-27T13:46:43.412Z,-2.30
2018-02-27T13:47:43.565Z,-2.45
2018-02-27T13:48:45.912Z,-2.71
2018-02-27T13:49:43.849Z,-2.81
2018-02-27T13:50:44.004Z,-2.74